Terminal Aerodrome Forecast
Issued by NWS Pueblo, CO

Home | Current Version | Previous Version | Text Only | Print | Product List | Glossary On
Versions: 1 2 3 4 5 6 7 8 9 10 11 12 13 14 15 16 17 18 19 20 21 22 23 24 25 26 27 28 29 30 31 32 33 34 35
000
FTUS45 KPUB 032321
TAFCOS
TAF
KCOS 032321Z 0400/0424 12012KT P6SM VCSH SCT070 BKN150
     FM040100 16009KT P6SM VCSH SCT070 BKN150
     FM040500 02010KT P6SM VCSH SCT050 BKN100
     FM040900 04006KT P6SM VCSH SCT020 BKN050
      TEMPO 0410/0414 3SM -SHRA BR BKN025
     FM041500 08006KT P6SM VCSH SCT030 BKN060
     FM041800 16010KT P6SM VCTS SCT050 BKN100CB=

USA.gov is the U.S. government's official web portal to all federal, state and local government web resources and services.